sensor_id;sensor_type;location;lat;lon;timestamp;P1;durP1;ratioP1;P2;durP2;ratioP2
7418;SDS011;3751;51.852;9.718;2022-07-29T00:00:29;3.60;;;2.27;;
7418;SDS011;3751;51.852;9.718;2022-07-29T00:02:55;7.57;;;2.60;;
7418;SDS011;3751;51.852;9.718;2022-07-29T00:05:22;6.37;;;2.53;;
7418;SDS011;3751;51.852;9.718;2022-07-29T00:07:48;7.37;;;2.40;;
7418;SDS011;3751;51.852;9.718;2022-07-29T00:10:14;3.20;;;1.87;;
7418;SDS011;3751;51.852;9.718;2022-07-29T00:12:40;4.83;;;2.10;;
7418;SDS011;3751;51.852;9.718;2022-07-29T00:15:06;3.10;;;1.87;;
7418;SDS011;3751;51.852;9.718;2022-07-29T00:17:32;4.77;;;2.00;;
7418;SDS011;3751;51.852;9.718;2022-07-29T00:19:59;3.27;;;2.23;;
7418;SDS011;3751;51.852;9.718;2022-07-29T00:22:25;4.90;;;2.10;;
7418;SDS011;3751;51.852;9.718;2022-07-29T00:24:51;2.87;;;1.90;;
7418;SDS011;3751;51.852;9.718;2022-07-29T00:27:17;3.73;;;1.90;;
7418;SDS011;3751;51.852;9.718;2022-07-29T00:29:43;5.50;;;2.30;;
7418;SDS011;3751;51.852;9.718;2022-07-29T00:32:09;2.53;;;2.07;;
7418;SDS011;3751;51.852;9.718;2022-07-29T00:34:35;4.47;;;2.13;;
7418;SDS011;3751;51.852;9.718;2022-07-29T00:37:20;6.40;;;1.73;;
7418;SDS011;3751;51.852;9.718;2022-07-29T00:39:46;5.40;;;2.47;;
7418;SDS011;3751;51.852;9.718;2022-07-29T00:42:12;4.73;;;2.13;;
7418;SDS011;3751;51.852;9.718;2022-07-29T00:44:38;2.67;;;1.90;;
7418;SDS011;3751;51.852;9.718;2022-07-29T00:47:05;4.10;;;2.40;;
7418;SDS011;3751;51.852;9.718;2022-07-29T00:49:31;7.20;;;2.33;;
7418;SDS011;3751;51.852;9.718;2022-07-29T00:51:57;4.90;;;2.03;;
7418;SDS011;3751;51.852;9.718;2022-07-29T00:54:23;2.60;;;1.80;;
7418;SDS011;3751;51.852;9.718;2022-07-29T00:56:49;3.43;;;2.57;;
7418;SDS011;3751;51.852;9.718;2022-07-29T00:59:15;7.37;;;2.73;;
7418;SDS011;3751;51.852;9.718;2022-07-29T01:01:41;3.70;;;2.13;;
7418;SDS011;3751;51.852;9.718;2022-07-29T01:04:07;3.93;;;2.10;;
7418;SDS011;3751;51.852;9.718;2022-07-29T01:06:33;4.17;;;2.33;;
7418;SDS011;3751;51.852;9.718;2022-07-29T01:09:00;4.03;;;2.20;;
7418;SDS011;3751;51.852;9.718;2022-07-29T01:11:27;3.70;;;2.10;;
7418;SDS011;3751;51.852;9.718;2022-07-29T01:13:53;9.43;;;2.10;;
7418;SDS011;3751;51.852;9.718;2022-07-29T01:16:25;4.03;;;2.73;;
7418;SDS011;3751;51.852;9.718;2022-07-29T01:18:53;2.43;;;2.03;;
7418;SDS011;3751;51.852;9.718;2022-07-29T01:21:27;4.50;;;2.20;;
7418;SDS011;3751;51.852;9.718;2022-07-29T01:31:46;3.80;;;2.80;;
7418;SDS011;3751;51.852;9.718;2022-07-29T01:34:18;4.00;;;2.70;;
7418;SDS011;3751;51.852;9.718;2022-07-29T01:36:48;6.03;;;2.40;;
7418;SDS011;3751;51.852;9.718;2022-07-29T01:39:21;4.87;;;2.17;;
7418;SDS011;3751;51.852;9.718;2022-07-29T01:41:50;5.97;;;2.30;;
7418;SDS011;3751;51.852;9.718;2022-07-29T01:44:41;4.10;;;2.37;;
7418;SDS011;3751;51.852;9.718;2022-07-29T01:47:11;3.63;;;3.13;;
7418;SDS011;3751;51.852;9.718;2022-07-29T01:49:39;3.53;;;2.20;;
7418;SDS011;3751;51.852;9.718;2022-07-29T01:52:11;3.80;;;2.60;;
7418;SDS011;3751;51.852;9.718;2022-07-29T01:54:39;6.77;;;3.80;;
7418;SDS011;3751;51.852;9.718;2022-07-29T01:57:08;5.70;;;2.20;;
7418;SDS011;3751;51.852;9.718;2022-07-29T01:59:34;2.93;;;2.00;;
7418;SDS011;3751;51.852;9.718;2022-07-29T02:02:02;3.50;;;2.07;;
7418;SDS011;3751;51.852;9.718;2022-07-29T02:04:28;3.97;;;2.40;;
7418;SDS011;3751;51.852;9.718;2022-07-29T02:06:56;4.90;;;2.30;;
7418;SDS011;3751;51.852;9.718;2022-07-29T02:09:22;3.50;;;2.37;;
7418;SDS011;3751;51.852;9.718;2022-07-29T02:11:51;3.17;;;2.40;;
7418;SDS011;3751;51.852;9.718;2022-07-29T02:14:18;4.33;;;2.87;;
7418;SDS011;3751;51.852;9.718;2022-07-29T02:16:44;2.97;;;2.23;;
7418;SDS011;3751;51.852;9.718;2022-07-29T02:19:11;6.93;;;2.30;;
7418;SDS011;3751;51.852;9.718;2022-07-29T02:21:38;4.53;;;1.93;;
7418;SDS011;3751;51.852;9.718;2022-07-29T02:24:05;4.87;;;2.40;;
7418;SDS011;3751;51.852;9.718;2022-07-29T02:26:31;7.53;;;2.10;;
7418;SDS011;3751;51.852;9.718;2022-07-29T02:28:58;5.53;;;2.60;;
7418;SDS011;3751;51.852;9.718;2022-07-29T02:31:25;7.50;;;2.73;;
7418;SDS011;3751;51.852;9.718;2022-07-29T02:33:52;4.80;;;2.60;;
7418;SDS011;3751;51.852;9.718;2022-07-29T02:36:18;4.57;;;2.40;;
7418;SDS011;3751;51.852;9.718;2022-07-29T02:38:46;5.50;;;2.33;;
7418;SDS011;3751;51.852;9.718;2022-07-29T02:41:30;3.63;;;2.20;;
7418;SDS011;3751;51.852;9.718;2022-07-29T02:44:03;6.70;;;2.07;;
7418;SDS011;3751;51.852;9.718;2022-07-29T02:46:31;5.03;;;2.43;;
7418;SDS011;3751;51.852;9.718;2022-07-29T02:49:46;5.73;;;2.60;;
7418;SDS011;3751;51.852;9.718;2022-07-29T02:52:03;5.90;;;2.57;;
7418;SDS011;3751;51.852;9.718;2022-07-29T02:57:04;3.70;;;2.40;;
7418;SDS011;3751;51.852;9.718;2022-07-29T02:59:32;6.97;;;3.17;;
7418;SDS011;3751;51.852;9.718;2022-07-29T03:01:58;3.10;;;2.27;;
7418;SDS011;3751;51.852;9.718;2022-07-29T03:04:25;5.03;;;2.47;;
7418;SDS011;3751;51.852;9.718;2022-07-29T03:06:53;2.90;;;2.53;;
7418;SDS011;3751;51.852;9.718;2022-07-29T03:09:19;2.90;;;2.20;;
7418;SDS011;3751;51.852;9.718;2022-07-29T03:11:46;7.03;;;2.40;;
7418;SDS011;3751;51.852;9.718;2022-07-29T03:14:13;7.60;;;2.53;;
7418;SDS011;3751;51.852;9.718;2022-07-29T03:16:39;7.07;;;2.30;;
7418;SDS011;3751;51.852;9.718;2022-07-29T03:19:06;3.77;;;2.60;;
7418;SDS011;3751;51.852;9.718;2022-07-29T03:21:33;3.90;;;2.10;;
7418;SDS011;3751;51.852;9.718;2022-07-29T03:23:59;3.93;;;2.60;;
7418;SDS011;3751;51.852;9.718;2022-07-29T03:26:25;8.40;;;2.57;;
7418;SDS011;3751;51.852;9.718;2022-07-29T03:28:51;4.33;;;2.03;;
7418;SDS011;3751;51.852;9.718;2022-07-29T03:31:17;5.87;;;2.37;;
7418;SDS011;3751;51.852;9.718;2022-07-29T03:33:43;3.73;;;2.77;;
7418;SDS011;3751;51.852;9.718;2022-07-29T03:36:09;3.70;;;2.60;;
7418;SDS011;3751;51.852;9.718;2022-07-29T03:38:35;12.30;;;2.50;;
7418;SDS011;3751;51.852;9.718;2022-07-29T03:41:05;5.50;;;2.40;;
7418;SDS011;3751;51.852;9.718;2022-07-29T03:43:34;2.90;;;2.53;;
7418;SDS011;3751;51.852;9.718;2022-07-29T03:46:01;2.53;;;2.10;;
7418;SDS011;3751;51.852;9.718;2022-07-29T03:48:29;4.13;;;2.60;;
7418;SDS011;3751;51.852;9.718;2022-07-29T03:50:58;4.13;;;2.87;;
7418;SDS011;3751;51.852;9.718;2022-07-29T03:53:24;3.50;;;2.13;;
7418;SDS011;3751;51.852;9.718;2022-07-29T03:55:52;4.10;;;2.80;;
7418;SDS011;3751;51.852;9.718;2022-07-29T03:58:18;3.43;;;2.30;;
7418;SDS011;3751;51.852;9.718;2022-07-29T04:00:44;2.57;;;2.33;;
7418;SDS011;3751;51.852;9.718;2022-07-29T04:03:11;5.30;;;2.60;;
7418;SDS011;3751;51.852;9.718;2022-07-29T04:05:37;2.63;;;2.13;;
7418;SDS011;3751;51.852;9.718;2022-07-29T04:08:03;8.20;;;2.70;;
7418;SDS011;3751;51.852;9.718;2022-07-29T04:10:29;5.70;;;2.70;;
7418;SDS011;3751;51.852;9.718;2022-07-29T04:12:55;4.23;;;2.40;;
7418;SDS011;3751;51.852;9.718;2022-07-29T04:15:21;6.20;;;2.40;;
7418;SDS011;3751;51.852;9.718;2022-07-29T04:17:47;3.10;;;2.10;;
7418;SDS011;3751;51.852;9.718;2022-07-29T04:20:13;9.07;;;2.30;;
7418;SDS011;3751;51.852;9.718;2022-07-29T04:22:42;4.00;;;2.60;;
7418;SDS011;3751;51.852;9.718;2022-07-29T04:25:08;6.50;;;2.70;;
7418;SDS011;3751;51.852;9.718;2022-07-29T04:27:34;3.27;;;2.60;;
7418;SDS011;3751;51.852;9.718;2022-07-29T04:30:01;5.53;;;2.40;;
7418;SDS011;3751;51.852;9.718;2022-07-29T04:32:26;11.87;;;2.63;;
7418;SDS011;3751;51.852;9.718;2022-07-29T04:34:52;7.80;;;2.70;;
7418;SDS011;3751;51.852;9.718;2022-07-29T04:37:18;15.53;;;5.30;;
7418;SDS011;3751;51.852;9.718;2022-07-29T04:39:44;13.77;;;3.00;;
7418;SDS011;3751;51.852;9.718;2022-07-29T04:42:10;20.80;;;3.50;;
7418;SDS011;3751;51.852;9.718;2022-07-29T04:44:36;7.00;;;2.60;;
7418;SDS011;3751;51.852;9.718;2022-07-29T04:47:02;9.90;;;3.10;;
7418;SDS011;3751;51.852;9.718;2022-07-29T04:49:28;18.03;;;3.13;;
7418;SDS011;3751;51.852;9.718;2022-07-29T04:51:55;8.33;;;3.07;;
7418;SDS011;3751;51.852;9.718;2022-07-29T04:54:21;8.43;;;2.87;;
7418;SDS011;3751;51.852;9.718;2022-07-29T04:56:47;6.80;;;2.77;;
7418;SDS011;3751;51.852;9.718;2022-07-29T04:59:13;5.93;;;2.60;;
7418;SDS011;3751;51.852;9.718;2022-07-29T05:01:39;14.90;;;3.17;;
7418;SDS011;3751;51.852;9.718;2022-07-29T05:04:05;5.17;;;2.37;;
7418;SDS011;3751;51.852;9.718;2022-07-29T05:06:31;8.13;;;3.07;;
7418;SDS011;3751;51.852;9.718;2022-07-29T05:08:57;8.47;;;4.77;;
7418;SDS011;3751;51.852;9.718;2022-07-29T05:11:23;5.73;;;2.87;;
7418;SDS011;3751;51.852;9.718;2022-07-29T05:13:49;4.87;;;3.20;;
7418;SDS011;3751;51.852;9.718;2022-07-29T05:16:15;5.97;;;2.80;;
7418;SDS011;3751;51.852;9.718;2022-07-29T05:18:41;4.10;;;2.67;;
7418;SDS011;3751;51.852;9.718;2022-07-29T05:21:07;7.43;;;2.70;;
7418;SDS011;3751;51.852;9.718;2022-07-29T05:23:33;4.80;;;2.70;;
7418;SDS011;3751;51.852;9.718;2022-07-29T05:25:59;7.97;;;2.60;;
7418;SDS011;3751;51.852;9.718;2022-07-29T05:28:25;4.67;;;2.67;;
7418;SDS011;3751;51.852;9.718;2022-07-29T05:30:51;5.90;;;2.40;;
7418;SDS011;3751;51.852;9.718;2022-07-29T05:33:17;6.37;;;2.77;;
7418;SDS011;3751;51.852;9.718;2022-07-29T05:35:43;6.77;;;2.90;;
7418;SDS011;3751;51.852;9.718;2022-07-29T05:38:09;5.40;;;2.90;;
7418;SDS011;3751;51.852;9.718;2022-07-29T05:40:35;6.47;;;2.53;;
7418;SDS011;3751;51.852;9.718;2022-07-29T05:43:01;6.67;;;2.93;;
7418;SDS011;3751;51.852;9.718;2022-07-29T05:45:27;15.03;;;3.10;;
7418;SDS011;3751;51.852;9.718;2022-07-29T05:47:53;6.10;;;2.83;;
7418;SDS011;3751;51.852;9.718;2022-07-29T05:50:19;6.57;;;2.63;;
7418;SDS011;3751;51.852;9.718;2022-07-29T05:52:45;6.00;;;2.77;;
7418;SDS011;3751;51.852;9.718;2022-07-29T05:55:11;9.70;;;3.40;;
7418;SDS011;3751;51.852;9.718;2022-07-29T05:57:37;6.37;;;2.60;;
7418;SDS011;3751;51.852;9.718;2022-07-29T06:00:03;4.23;;;2.43;;
7418;SDS011;3751;51.852;9.718;2022-07-29T06:02:29;5.50;;;2.57;;
7418;SDS011;3751;51.852;9.718;2022-07-29T06:04:55;6.93;;;2.60;;
7418;SDS011;3751;51.852;9.718;2022-07-29T06:07:21;5.33;;;2.77;;
7418;SDS011;3751;51.852;9.718;2022-07-29T06:09:47;6.13;;;2.53;;
7418;SDS011;3751;51.852;9.718;2022-07-29T06:12:13;3.07;;;2.60;;
7418;SDS011;3751;51.852;9.718;2022-07-29T06:14:39;3.07;;;2.43;;
7418;SDS011;3751;51.852;9.718;2022-07-29T06:17:05;5.73;;;2.30;;
7418;SDS011;3751;51.852;9.718;2022-07-29T06:19:33;3.10;;;2.33;;
7418;SDS011;3751;51.852;9.718;2022-07-29T06:22:00;5.80;;;2.50;;
7418;SDS011;3751;51.852;9.718;2022-07-29T06:24:26;5.97;;;2.40;;
7418;SDS011;3751;51.852;9.718;2022-07-29T06:26:52;5.50;;;3.20;;
7418;SDS011;3751;51.852;9.718;2022-07-29T06:29:18;6.63;;;2.70;;
7418;SDS011;3751;51.852;9.718;2022-07-29T06:31:44;7.60;;;2.50;;
7418;SDS011;3751;51.852;9.718;2022-07-29T06:34:10;5.00;;;2.40;;
7418;SDS011;3751;51.852;9.718;2022-07-29T06:36:36;7.90;;;2.47;;
7418;SDS011;3751;51.852;9.718;2022-07-29T06:39:06;9.13;;;3.57;;
7418;SDS011;3751;51.852;9.718;2022-07-29T06:41:32;3.60;;;2.40;;
7418;SDS011;3751;51.852;9.718;2022-07-29T06:43:58;6.83;;;2.10;;
7418;SDS011;3751;51.852;9.718;2022-07-29T06:46:24;8.83;;;2.50;;
7418;SDS011;3751;51.852;9.718;2022-07-29T06:48:51;5.00;;;2.30;;
7418;SDS011;3751;51.852;9.718;2022-07-29T06:51:17;5.70;;;2.50;;
7418;SDS011;3751;51.852;9.718;2022-07-29T06:53:43;3.97;;;2.13;;
7418;SDS011;3751;51.852;9.718;2022-07-29T06:56:09;5.20;;;2.47;;
7418;SDS011;3751;51.852;9.718;2022-07-29T06:58:37;7.20;;;2.70;;
7418;SDS011;3751;51.852;9.718;2022-07-29T07:01:04;5.97;;;2.50;;
7418;SDS011;3751;51.852;9.718;2022-07-29T07:03:30;3.80;;;2.43;;
7418;SDS011;3751;51.852;9.718;2022-07-29T07:05:57;13.67;;;3.30;;
7418;SDS011;3751;51.852;9.718;2022-07-29T07:08:23;4.67;;;2.80;;
7418;SDS011;3751;51.852;9.718;2022-07-29T07:10:49;3.47;;;2.03;;
7418;SDS011;3751;51.852;9.718;2022-07-29T07:13:15;6.07;;;2.43;;
7418;SDS011;3751;51.852;9.718;2022-07-29T07:15:42;5.67;;;2.20;;
7418;SDS011;3751;51.852;9.718;2022-07-29T07:18:08;3.37;;;2.20;;
7418;SDS011;3751;51.852;9.718;2022-07-29T07:20:34;4.10;;;2.80;;
7418;SDS011;3751;51.852;9.718;2022-07-29T07:23:01;4.73;;;2.40;;
7418;SDS011;3751;51.852;9.718;2022-07-29T07:25:27;3.47;;;2.47;;
7418;SDS011;3751;51.852;9.718;2022-07-29T07:27:53;5.03;;;2.20;;
7418;SDS011;3751;51.852;9.718;2022-07-29T07:30:19;6.23;;;2.53;;
7418;SDS011;3751;51.852;9.718;2022-07-29T07:32:45;8.13;;;2.80;;
7418;SDS011;3751;51.852;9.718;2022-07-29T07:35:10;3.60;;;2.20;;
7418;SDS011;3751;51.852;9.718;2022-07-29T07:37:37;5.80;;;2.73;;
7418;SDS011;3751;51.852;9.718;2022-07-29T07:40:05;4.77;;;2.30;;
7418;SDS011;3751;51.852;9.718;2022-07-29T07:42:31;5.10;;;2.60;;
7418;SDS011;3751;51.852;9.718;2022-07-29T07:44:58;7.87;;;2.53;;
7418;SDS011;3751;51.852;9.718;2022-07-29T07:47:24;3.07;;;2.23;;
7418;SDS011;3751;51.852;9.718;2022-07-29T07:49:50;8.50;;;2.20;;
7418;SDS011;3751;51.852;9.718;2022-07-29T07:52:16;6.23;;;2.50;;
7418;SDS011;3751;51.852;9.718;2022-07-29T07:54:43;6.73;;;2.80;;
7418;SDS011;3751;51.852;9.718;2022-07-29T07:57:09;4.73;;;2.40;;
7418;SDS011;3751;51.852;9.718;2022-07-29T07:59:36;4.90;;;3.30;;
7418;SDS011;3751;51.852;9.718;2022-07-29T08:02:02;6.83;;;2.70;;
7418;SDS011;3751;51.852;9.718;2022-07-29T08:04:28;7.50;;;2.80;;
7418;SDS011;3751;51.852;9.718;2022-07-29T08:06:54;3.03;;;2.10;;
7418;SDS011;3751;51.852;9.718;2022-07-29T08:09:21;6.67;;;2.57;;
7418;SDS011;3751;51.852;9.718;2022-07-29T08:11:47;3.80;;;2.40;;
7418;SDS011;3751;51.852;9.718;2022-07-29T08:14:13;4.37;;;2.43;;
7418;SDS011;3751;51.852;9.718;2022-07-29T08:16:42;6.70;;;2.60;;
7418;SDS011;3751;51.852;9.718;2022-07-29T08:19:08;4.70;;;2.90;;
7418;SDS011;3751;51.852;9.718;2022-07-29T08:21:34;5.47;;;3.27;;
7418;SDS011;3751;51.852;9.718;2022-07-29T08:24:01;5.80;;;2.50;;
7418;SDS011;3751;51.852;9.718;2022-07-29T08:26:45;2.90;;;2.40;;
7418;SDS011;3751;51.852;9.718;2022-07-29T08:29:11;5.37;;;2.50;;
7418;SDS011;3751;51.852;9.718;2022-07-29T08:31:37;4.40;;;2.27;;
7418;SDS011;3751;51.852;9.718;2022-07-29T08:34:04;7.17;;;2.90;;
7418;SDS011;3751;51.852;9.718;2022-07-29T08:36:30;5.73;;;2.53;;
7418;SDS011;3751;51.852;9.718;2022-07-29T08:38:57;4.57;;;2.03;;
7418;SDS011;3751;51.852;9.718;2022-07-29T08:41:23;7.17;;;2.70;;
7418;SDS011;3751;51.852;9.718;2022-07-29T08:43:50;3.27;;;2.17;;
7418;SDS011;3751;51.852;9.718;2022-07-29T08:46:16;6.37;;;2.33;;
7418;SDS011;3751;51.852;9.718;2022-07-29T08:48:43;10.67;;;2.83;;
7418;SDS011;3751;51.852;9.718;2022-07-29T08:51:12;7.17;;;2.90;;
7418;SDS011;3751;51.852;9.718;2022-07-29T08:53:40;5.70;;;2.20;;
7418;SDS011;3751;51.852;9.718;2022-07-29T08:56:07;4.30;;;2.03;;
7418;SDS011;3751;51.852;9.718;2022-07-29T08:58:33;12.70;;;2.30;;
7418;SDS011;3751;51.852;9.718;2022-07-29T09:01:00;5.30;;;2.60;;
7418;SDS011;3751;51.852;9.718;2022-07-29T09:03:30;3.90;;;2.50;;
7418;SDS011;3751;51.852;9.718;2022-07-29T09:05:57;4.90;;;2.80;;
7418;SDS011;3751;51.852;9.718;2022-07-29T09:08:23;7.30;;;2.23;;
7418;SDS011;3751;51.852;9.718;2022-07-29T09:10:49;4.83;;;2.70;;
7418;SDS011;3751;51.852;9.718;2022-07-29T09:13:16;4.57;;;2.40;;
7418;SDS011;3751;51.852;9.718;2022-07-29T09:15:43;5.00;;;2.40;;
7418;SDS011;3751;51.852;9.718;2022-07-29T09:18:09;7.13;;;2.93;;
7418;SDS011;3751;51.852;9.718;2022-07-29T09:20:35;7.03;;;3.00;;
7418;SDS011;3751;51.852;9.718;2022-07-29T09:23:19;3.37;;;2.03;;
7418;SDS011;3751;51.852;9.718;2022-07-29T09:25:46;3.30;;;2.17;;
7418;SDS011;3751;51.852;9.718;2022-07-29T09:28:14;3.50;;;2.43;;
7418;SDS011;3751;51.852;9.718;2022-07-29T09:33:17;6.23;;;2.63;;
7418;SDS011;3751;51.852;9.718;2022-07-29T09:35:43;9.40;;;3.40;;
7418;SDS011;3751;51.852;9.718;2022-07-29T09:38:17;5.30;;;2.57;;
7418;SDS011;3751;51.852;9.718;2022-07-29T09:40:44;8.37;;;2.90;;
7418;SDS011;3751;51.852;9.718;2022-07-29T09:43:21;3.73;;;2.80;;
7418;SDS011;3751;51.852;9.718;2022-07-29T09:45:47;11.33;;;2.83;;
7418;SDS011;3751;51.852;9.718;2022-07-29T09:48:23;7.90;;;2.83;;
7418;SDS011;3751;51.852;9.718;2022-07-29T09:50:49;6.07;;;2.50;;
7418;SDS011;3751;51.852;9.718;2022-07-29T09:53:29;7.77;;;2.40;;
7418;SDS011;3751;51.852;9.718;2022-07-29T09:55:55;6.47;;;2.63;;
7418;SDS011;3751;51.852;9.718;2022-07-29T09:58:22;4.70;;;2.50;;
7418;SDS011;3751;51.852;9.718;2022-07-29T10:00:49;4.47;;;2.40;;
7418;SDS011;3751;51.852;9.718;2022-07-29T10:03:15;5.20;;;2.80;;
7418;SDS011;3751;51.852;9.718;2022-07-29T10:05:42;10.03;;;2.70;;
7418;SDS011;3751;51.852;9.718;2022-07-29T10:08:08;7.70;;;2.50;;
7418;SDS011;3751;51.852;9.718;2022-07-29T10:10:36;8.87;;;2.70;;
7418;SDS011;3751;51.852;9.718;2022-07-29T10:13:06;4.23;;;2.07;;
7418;SDS011;3751;51.852;9.718;2022-07-29T10:15:34;5.20;;;3.03;;
7418;SDS011;3751;51.852;9.718;2022-07-29T10:18:05;5.37;;;2.63;;
7418;SDS011;3751;51.852;9.718;2022-07-29T10:20:31;6.43;;;2.40;;
7418;SDS011;3751;51.852;9.718;2022-07-29T10:22:57;7.20;;;3.00;;
7418;SDS011;3751;51.852;9.718;2022-07-29T10:25:24;2.70;;;2.50;;
7418;SDS011;3751;51.852;9.718;2022-07-29T10:27:50;6.90;;;2.90;;
7418;SDS011;3751;51.852;9.718;2022-07-29T10:30:17;5.50;;;2.30;;
7418;SDS011;3751;51.852;9.718;2022-07-29T10:35:27;7.93;;;2.77;;
7418;SDS011;3751;51.852;9.718;2022-07-29T10:43:23;3.93;;;2.60;;
7418;SDS011;3751;51.852;9.718;2022-07-29T10:45:49;4.53;;;2.20;;
7418;SDS011;3751;51.852;9.718;2022-07-29T10:48:20;3.43;;;2.53;;
7418;SDS011;3751;51.852;9.718;2022-07-29T10:51:02;5.20;;;2.70;;
7418;SDS011;3751;51.852;9.718;2022-07-29T10:54:02;7.63;;;2.57;;
7418;SDS011;3751;51.852;9.718;2022-07-29T10:56:28;4.73;;;2.77;;
7418;SDS011;3751;51.852;9.718;2022-07-29T11:01:39;7.20;;;3.00;;
7418;SDS011;3751;51.852;9.718;2022-07-29T11:04:05;5.77;;;2.93;;
7418;SDS011;3751;51.852;9.718;2022-07-29T11:09:17;3.27;;;2.60;;
7418;SDS011;3751;51.852;9.718;2022-07-29T11:11:43;8.00;;;2.53;;
7418;SDS011;3751;51.852;9.718;2022-07-29T11:14:10;5.63;;;2.37;;
7418;SDS011;3751;51.852;9.718;2022-07-29T11:19:21;5.40;;;2.63;;
7418;SDS011;3751;51.852;9.718;2022-07-29T11:21:48;6.97;;;2.80;;
7418;SDS011;3751;51.852;9.718;2022-07-29T11:24:19;5.50;;;2.50;;
7418;SDS011;3751;51.852;9.718;2022-07-29T11:27:04;3.87;;;2.70;;
7418;SDS011;3751;51.852;9.718;2022-07-29T11:29:31;4.23;;;2.50;;
7418;SDS011;3751;51.852;9.718;2022-07-29T11:32:07;13.67;;;2.60;;
7418;SDS011;3751;51.852;9.718;2022-07-29T11:34:33;4.87;;;2.33;;
7418;SDS011;3751;51.852;9.718;2022-07-29T11:39:30;8.10;;;2.77;;
7418;SDS011;3751;51.852;9.718;2022-07-29T11:44:57;10.60;;;2.80;;
7418;SDS011;3751;51.852;9.718;2022-07-29T11:47:28;6.70;;;2.80;;
7418;SDS011;3751;51.852;9.718;2022-07-29T11:49:55;6.00;;;3.33;;
7418;SDS011;3751;51.852;9.718;2022-07-29T11:52:34;7.93;;;2.90;;
7418;SDS011;3751;51.852;9.718;2022-07-29T11:55:02;4.10;;;2.93;;
7418;SDS011;3751;51.852;9.718;2022-07-29T11:57:28;6.50;;;2.70;;
7418;SDS011;3751;51.852;9.718;2022-07-29T11:59:55;4.50;;;2.77;;
7418;SDS011;3751;51.852;9.718;2022-07-29T12:02:22;4.87;;;2.70;;
7418;SDS011;3751;51.852;9.718;2022-07-29T12:04:49;4.00;;;2.90;;
7418;SDS011;3751;51.852;9.718;2022-07-29T12:07:15;9.10;;;3.23;;
7418;SDS011;3751;51.852;9.718;2022-07-29T12:09:51;5.53;;;3.00;;
7418;SDS011;3751;51.852;9.718;2022-07-29T12:12:17;10.20;;;2.97;;
7418;SDS011;3751;51.852;9.718;2022-07-29T12:14:43;3.00;;;2.70;;
7418;SDS011;3751;51.852;9.718;2022-07-29T12:17:25;6.70;;;2.90;;
7418;SDS011;3751;51.852;9.718;2022-07-29T12:19:52;5.77;;;3.30;;
7418;SDS011;3751;51.852;9.718;2022-07-29T12:22:32;5.30;;;3.13;;
7418;SDS011;3751;51.852;9.718;2022-07-29T12:25:03;7.43;;;3.23;;
7418;SDS011;3751;51.852;9.718;2022-07-29T12:27:29;6.93;;;3.37;;
7418;SDS011;3751;51.852;9.718;2022-07-29T12:29:56;5.97;;;3.00;;
7418;SDS011;3751;51.852;9.718;2022-07-29T12:32:22;5.20;;;2.80;;
7418;SDS011;3751;51.852;9.718;2022-07-29T12:34:49;7.90;;;3.40;;
7418;SDS011;3751;51.852;9.718;2022-07-29T12:37:15;10.17;;;3.40;;
7418;SDS011;3751;51.852;9.718;2022-07-29T12:39:41;8.13;;;3.07;;
7418;SDS011;3751;51.852;9.718;2022-07-29T12:42:14;5.43;;;3.10;;
7418;SDS011;3751;51.852;9.718;2022-07-29T12:44:47;8.20;;;3.37;;
7418;SDS011;3751;51.852;9.718;2022-07-29T12:47:13;5.17;;;3.23;;
7418;SDS011;3751;51.852;9.718;2022-07-29T12:49:39;6.00;;;3.00;;
7418;SDS011;3751;51.852;9.718;2022-07-29T12:54:50;4.23;;;3.23;;
7418;SDS011;3751;51.852;9.718;2022-07-29T12:57:16;6.87;;;3.37;;
7418;SDS011;3751;51.852;9.718;2022-07-29T12:59:42;5.37;;;3.10;;
7418;SDS011;3751;51.852;9.718;2022-07-29T13:02:20;5.23;;;3.00;;
7418;SDS011;3751;51.852;9.718;2022-07-29T13:04:55;7.70;;;3.00;;
7418;SDS011;3751;51.852;9.718;2022-07-29T13:07:25;7.30;;;3.17;;
7418;SDS011;3751;51.852;9.718;2022-07-29T13:09:52;10.70;;;3.67;;
7418;SDS011;3751;51.852;9.718;2022-07-29T13:12:19;10.40;;;3.40;;
7418;SDS011;3751;51.852;9.718;2022-07-29T13:14:49;6.07;;;3.10;;
7418;SDS011;3751;51.852;9.718;2022-07-29T13:17:16;6.93;;;3.00;;
7418;SDS011;3751;51.852;9.718;2022-07-29T13:19:44;7.63;;;3.43;;
7418;SDS011;3751;51.852;9.718;2022-07-29T13:22:13;8.70;;;4.00;;
7418;SDS011;3751;51.852;9.718;2022-07-29T13:27:19;6.00;;;3.20;;
7418;SDS011;3751;51.852;9.718;2022-07-29T13:29:46;7.80;;;3.47;;
7418;SDS011;3751;51.852;9.718;2022-07-29T13:32:12;8.80;;;3.50;;
7418;SDS011;3751;51.852;9.718;2022-07-29T13:34:39;6.80;;;3.27;;
7418;SDS011;3751;51.852;9.718;2022-07-29T13:37:05;3.47;;;2.80;;
7418;SDS011;3751;51.852;9.718;2022-07-29T13:39:31;8.73;;;3.10;;
7418;SDS011;3751;51.852;9.718;2022-07-29T13:41:57;8.43;;;3.33;;
7418;SDS011;3751;51.852;9.718;2022-07-29T13:44:23;5.50;;;3.17;;
7418;SDS011;3751;51.852;9.718;2022-07-29T13:46:50;6.20;;;3.43;;
7418;SDS011;3751;51.852;9.718;2022-07-29T13:49:16;12.63;;;3.83;;
7418;SDS011;3751;51.852;9.718;2022-07-29T13:51:42;7.20;;;3.60;;
7418;SDS011;3751;51.852;9.718;2022-07-29T13:54:08;7.30;;;3.10;;
7418;SDS011;3751;51.852;9.718;2022-07-29T13:56:34;6.30;;;3.57;;
7418;SDS011;3751;51.852;9.718;2022-07-29T13:59:00;5.53;;;3.33;;
7418;SDS011;3751;51.852;9.718;2022-07-29T14:01:26;4.20;;;3.53;;
7418;SDS011;3751;51.852;9.718;2022-07-29T14:03:52;5.40;;;3.60;;
7418;SDS011;3751;51.852;9.718;2022-07-29T14:06:18;8.90;;;3.80;;
7418;SDS011;3751;51.852;9.718;2022-07-29T14:08:44;7.97;;;3.50;;
7418;SDS011;3751;51.852;9.718;2022-07-29T14:11:10;13.67;;;4.00;;
7418;SDS011;3751;51.852;9.718;2022-07-29T14:13:36;5.70;;;3.50;;
7418;SDS011;3751;51.852;9.718;2022-07-29T14:16:02;7.20;;;3.63;;
7418;SDS011;3751;51.852;9.718;2022-07-29T14:18:28;7.67;;;3.73;;
7418;SDS011;3751;51.852;9.718;2022-07-29T14:20:54;14.20;;;3.93;;
7418;SDS011;3751;51.852;9.718;2022-07-29T14:23:20;8.97;;;4.30;;
7418;SDS011;3751;51.852;9.718;2022-07-29T14:25:46;10.43;;;4.03;;
7418;SDS011;3751;51.852;9.718;2022-07-29T14:28:12;9.00;;;4.03;;
7418;SDS011;3751;51.852;9.718;2022-07-29T14:30:38;8.80;;;3.90;;
7418;SDS011;3751;51.852;9.718;2022-07-29T14:33:04;5.20;;;3.93;;
7418;SDS011;3751;51.852;9.718;2022-07-29T14:35:30;8.03;;;4.23;;
7418;SDS011;3751;51.852;9.718;2022-07-29T14:37:56;8.20;;;4.57;;
7418;SDS011;3751;51.852;9.718;2022-07-29T14:40:22;5.60;;;4.10;;
7418;SDS011;3751;51.852;9.718;2022-07-29T14:42:48;5.10;;;3.77;;
7418;SDS011;3751;51.852;9.718;2022-07-29T14:45:14;7.53;;;4.13;;
7418;SDS011;3751;51.852;9.718;2022-07-29T14:47:40;5.60;;;4.30;;
7418;SDS011;3751;51.852;9.718;2022-07-29T14:50:07;10.47;;;5.00;;
7418;SDS011;3751;51.852;9.718;2022-07-29T14:52:33;9.87;;;4.63;;
7418;SDS011;3751;51.852;9.718;2022-07-29T14:54:59;4.70;;;4.20;;
7418;SDS011;3751;51.852;9.718;2022-07-29T14:57:25;8.90;;;4.73;;
7418;SDS011;3751;51.852;9.718;2022-07-29T14:59:51;6.03;;;4.07;;
7418;SDS011;3751;51.852;9.718;2022-07-29T15:02:17;6.63;;;4.50;;
7418;SDS011;3751;51.852;9.718;2022-07-29T15:04:43;9.73;;;4.67;;
7418;SDS011;3751;51.852;9.718;2022-07-29T15:07:11;15.80;;;5.30;;
7418;SDS011;3751;51.852;9.718;2022-07-29T15:09:37;8.60;;;4.13;;
7418;SDS011;3751;51.852;9.718;2022-07-29T15:12:03;15.90;;;4.80;;
7418;SDS011;3751;51.852;9.718;2022-07-29T15:14:29;11.17;;;5.03;;
7418;SDS011;3751;51.852;9.718;2022-07-29T15:16:56;25.63;;;5.27;;
7418;SDS011;3751;51.852;9.718;2022-07-29T15:19:22;11.17;;;4.63;;
7418;SDS011;3751;51.852;9.718;2022-07-29T15:21:48;8.90;;;4.67;;
7418;SDS011;3751;51.852;9.718;2022-07-29T15:24:17;9.43;;;4.50;;
7418;SDS011;3751;51.852;9.718;2022-07-29T15:26:44;7.63;;;4.23;;
7418;SDS011;3751;51.852;9.718;2022-07-29T15:29:10;12.93;;;4.90;;
7418;SDS011;3751;51.852;9.718;2022-07-29T15:31:36;9.07;;;4.03;;
7418;SDS011;3751;51.852;9.718;2022-07-29T15:34:02;6.97;;;3.87;;
7418;SDS011;3751;51.852;9.718;2022-07-29T15:36:28;5.43;;;4.23;;
7418;SDS011;3751;51.852;9.718;2022-07-29T15:38:54;7.07;;;4.70;;
7418;SDS011;3751;51.852;9.718;2022-07-29T15:41:21;8.87;;;4.40;;
7418;SDS011;3751;51.852;9.718;2022-07-29T15:43:47;6.73;;;4.20;;
7418;SDS011;3751;51.852;9.718;2022-07-29T15:46:18;9.50;;;4.60;;
7418;SDS011;3751;51.852;9.718;2022-07-29T15:49:03;9.60;;;3.90;;
7418;SDS011;3751;51.852;9.718;2022-07-29T15:51:29;8.90;;;4.27;;
7418;SDS011;3751;51.852;9.718;2022-07-29T15:53:55;9.20;;;3.90;;
7418;SDS011;3751;51.852;9.718;2022-07-29T15:56:22;6.43;;;3.90;;